createdAt,value
2023-01-13T00:03:13.121Z,5.65
2023-01-13T00:06:21.587Z,8.52
2023-01-13T00:09:23.160Z,4.50
2023-01-13T00:12:24.701Z,6.40
2023-01-13T00:15:26.264Z,7.63
2023-01-13T00:18:28.335Z,5.93
2023-01-13T00:21:29.838Z,6.95
2023-01-13T00:24:31.460Z,5.13
2023-01-13T00:27:33.586Z,5.57
2023-01-13T00:30:38.484Z,4.88
2023-01-13T00:33:40.502Z,5.55
2023-01-13T00:36:42.031Z,7.35
2023-01-13T00:39:43.656Z,6.80
2023-01-13T00:43:03.729Z,5.43
2023-01-13T00:46:07.807Z,7.10
2023-01-13T00:49:09.360Z,4.65
2023-01-13T00:52:12.090Z,5.80
2023-01-13T00:55:13.645Z,4.97
2023-01-13T00:58:15.443Z,2.80
2023-01-13T01:01:19.635Z,6.40
2023-01-13T01:04:21.249Z,5.97
2023-01-13T01:07:22.775Z,6.32
2023-01-13T01:10:24.341Z,4.30
2023-01-13T01:13:25.867Z,5.03
2023-01-13T01:16:30.384Z,5.43
2023-01-13T01:19:32.037Z,7.13
2023-01-13T01:22:33.638Z,5.32
2023-01-13T01:25:35.132Z,4.78
2023-01-13T01:28:36.760Z,6.13
2023-01-13T01:31:38.367Z,4.80
2023-01-13T01:34:39.932Z,4.03
2023-01-13T01:37:41.444Z,6.87
2023-01-13T01:40:42.967Z,8.40
2023-01-13T01:44:08.976Z,6.32
2023-01-13T01:47:14.398Z,10.52
2023-01-13T01:50:17.441Z,4.90
2023-01-13T01:53:24.135Z,10.82
2023-01-13T01:56:25.760Z,3.88
2023-01-13T01:59:32.516Z,3.88
2023-01-13T02:02:34.330Z,5.90
2023-01-13T02:05:36.473Z,6.28
2023-01-13T02:08:40.283Z,4.95
2023-01-13T02:12:00.358Z,6.65
2023-01-13T02:15:09.073Z,8.45
2023-01-13T02:18:32.464Z,6.35
2023-01-13T02:21:51.106Z,6.85
2023-01-13T02:25:39.359Z,7.75
2023-01-13T02:29:25.771Z,3.33
2023-01-13T02:32:47.195Z,6.45
2023-01-13T02:36:01.421Z,6.13
2023-01-13T02:39:14.030Z,5.47
2023-01-13T02:42:44.302Z,8.50
2023-01-13T02:45:57.478Z,7.47
2023-01-13T02:49:04.889Z,6.07
2023-01-13T02:52:12.299Z,5.93
2023-01-13T02:55:18.701Z,8.60
2023-01-13T02:58:25.101Z,10.80
2023-01-13T03:01:27.014Z,7.00
2023-01-13T03:04:46.670Z,4.40
2023-01-13T03:08:09.172Z,5.18
2023-01-13T03:11:14.328Z,4.93
2023-01-13T03:14:30.367Z,7.53
2023-01-13T03:17:43.909Z,3.22
2023-01-13T03:21:03.059Z,6.20
2023-01-13T03:24:16.984Z,7.38
2023-01-13T03:27:25.561Z,11.00
2023-01-13T03:30:38.811Z,4.63
2023-01-13T03:33:51.387Z,4.18
2023-01-13T03:40:03.834Z,5.03
2023-01-13T03:43:30.387Z,4.60
2023-01-13T03:46:42.317Z,6.35
2023-01-13T03:50:10.010Z,4.28
2023-01-13T03:53:18.640Z,6.13
2023-01-13T03:56:27.317Z,4.22
2023-01-13T03:59:37.942Z,6.95
2023-01-13T04:02:52.203Z,5.20
2023-01-13T04:05:59.848Z,4.20
2023-01-13T04:09:33.299Z,4.68
2023-01-13T04:13:01.101Z,5.13
2023-01-13T04:16:05.674Z,3.20
2023-01-13T04:19:07.165Z,4.10
2023-01-13T04:22:08.645Z,5.27
2023-01-13T04:25:11.451Z,2.87
2023-01-13T04:28:13.868Z,4.97
2023-01-13T04:31:15.375Z,4.05
2023-01-13T04:34:16.866Z,5.47
2023-01-13T04:37:18.517Z,3.87
2023-01-13T04:40:19.941Z,5.28
2023-01-13T04:43:21.399Z,5.57
2023-01-13T04:46:22.904Z,3.07
2023-01-13T04:49:24.435Z,4.17
2023-01-13T04:52:25.931Z,4.63
2023-01-13T04:55:27.957Z,5.00
2023-01-13T04:58:29.434Z,3.95
2023-01-13T05:01:31.075Z,5.33
2023-01-13T05:04:32.553Z,5.47
2023-01-13T05:07:34.009Z,4.97
2023-01-13T05:10:35.461Z,3.08
2023-01-13T05:13:55.605Z,5.27
2023-01-13T05:17:06.170Z,6.03
2023-01-13T05:20:08.755Z,2.92
2023-01-13T05:23:28.911Z,3.70
2023-01-13T05:26:30.303Z,3.42
2023-01-13T05:29:31.684Z,6.22
2023-01-13T05:32:33.256Z,4.22
2023-01-13T05:35:34.702Z,5.38
2023-01-13T05:38:36.150Z,2.90
2023-01-13T05:41:56.310Z,2.60
2023-01-13T05:44:57.751Z,2.15
2023-01-13T05:47:59.168Z,3.63
2023-01-13T05:51:01.800Z,3.63
2023-01-13T05:54:03.552Z,2.63
2023-01-13T05:57:04.960Z,3.20
2023-01-13T06:00:07.129Z,2.73
2023-01-13T06:03:16.099Z,2.75
2023-01-13T06:06:17.673Z,1.60
2023-01-13T06:09:20.966Z,3.60
2023-01-13T06:12:22.395Z,3.20
2023-01-13T06:15:24.463Z,1.43
2023-01-13T06:18:26.447Z,2.67
2023-01-13T06:21:27.842Z,2.00
2023-01-13T06:24:29.346Z,1.53
2023-01-13T06:27:31.058Z,3.00
2023-01-13T06:30:40.017Z,2.65
2023-01-13T06:33:49.303Z,2.88
2023-01-13T06:36:53.722Z,3.08
2023-01-13T06:39:58.624Z,1.75
2023-01-13T06:43:16.659Z,4.18
2023-01-13T06:46:18.743Z,5.40
2023-01-13T06:49:21.732Z,3.28
2023-01-13T06:52:23.484Z,3.38
2023-01-13T06:55:25.292Z,3.53
2023-01-13T06:58:26.821Z,5.63
2023-01-13T07:01:28.356Z,5.20
2023-01-13T07:04:29.860Z,1.98
2023-01-13T07:07:32.615Z,2.47
2023-01-13T07:10:34.865Z,3.17
2023-01-13T07:16:56.555Z,3.75
2023-01-13T07:19:58.004Z,3.13
2023-01-13T07:22:59.415Z,4.77
2023-01-13T07:26:01.170Z,3.65
2023-01-13T07:29:02.645Z,3.47
2023-01-13T07:32:04.340Z,8.53
2023-01-13T07:35:06.308Z,3.55
2023-01-13T07:38:08.364Z,4.22
2023-01-13T07:41:31.655Z,6.82
2023-01-13T07:44:33.447Z,4.65
2023-01-13T07:47:34.923Z,4.60
2023-01-13T07:50:36.407Z,4.10
2023-01-13T07:53:38.789Z,5.90
2023-01-13T07:59:41.713Z,4.13
2023-01-13T08:02:43.251Z,5.30
2023-01-13T08:05:44.754Z,7.50
2023-01-13T08:08:46.322Z,3.20
2023-01-13T08:12:07.727Z,3.40
2023-01-13T08:15:10.127Z,3.67
2023-01-13T08:21:14.595Z,7.65
2023-01-13T08:24:16.024Z,4.53
2023-01-13T08:27:17.550Z,4.37
2023-01-13T08:30:19.257Z,4.77
2023-01-13T08:33:21.000Z,4.38
2023-01-13T08:36:22.541Z,3.35
2023-01-13T08:39:25.097Z,5.33
2023-01-13T08:42:27.713Z,5.65
2023-01-13T08:45:29.292Z,3.65
2023-01-13T08:48:31.635Z,7.17
2023-01-13T08:51:33.803Z,5.40
2023-01-13T08:54:38.553Z,4.35
2023-01-13T08:57:40.185Z,6.95
2023-01-13T09:00:42.205Z,10.98
2023-01-13T09:03:43.930Z,10.27
2023-01-13T09:06:46.204Z,9.68
2023-01-13T09:09:47.924Z,10.40
2023-01-13T09:13:08.133Z,6.90
2023-01-13T09:16:09.586Z,5.65
2023-01-13T09:19:11.045Z,6.67
2023-01-13T09:22:18.307Z,9.00
2023-01-13T09:25:19.817Z,7.22
2023-01-13T09:28:21.214Z,6.80
2023-01-13T09:31:22.620Z,8.43
2023-01-13T09:34:43.173Z,9.50
2023-01-13T09:37:44.629Z,7.32
2023-01-13T09:40:48.895Z,11.05
2023-01-13T09:43:56.723Z,6.97
2023-01-13T09:47:04.032Z,6.57
2023-01-13T09:50:22.227Z,7.07
2023-01-13T09:53:34.140Z,4.78
2023-01-13T09:56:35.882Z,4.68
2023-01-13T09:59:38.192Z,7.22
2023-01-13T10:03:08.267Z,4.75
2023-01-13T10:06:27.895Z,6.80
2023-01-13T10:09:51.384Z,6.60
2023-01-13T10:13:11.517Z,7.28
2023-01-13T10:16:46.557Z,6.05
2023-01-13T10:19:54.343Z,3.60
2023-01-13T10:23:14.293Z,4.55
2023-01-13T10:26:26.840Z,3.40
2023-01-13T10:29:30.111Z,2.47
2023-01-13T10:32:31.630Z,2.72
2023-01-13T10:35:56.661Z,7.10
2023-01-13T10:39:09.071Z,7.80
2023-01-13T10:42:16.860Z,2.97
2023-01-13T10:45:25.139Z,2.80
2023-01-13T10:48:57.072Z,3.78
2023-01-13T10:51:58.939Z,5.47
2023-01-13T10:55:01.223Z,3.00
2023-01-13T10:58:20.947Z,3.55
2023-01-13T11:01:27.274Z,8.27
2023-01-13T11:05:03.322Z,2.90
2023-01-13T11:08:05.107Z,3.50
2023-01-13T11:11:26.160Z,4.25
2023-01-13T11:14:42.153Z,4.28
2023-01-13T11:17:53.557Z,3.80
2023-01-13T11:20:56.628Z,4.93
2023-01-13T11:24:10.705Z,6.47
2023-01-13T11:27:39.843Z,5.20
2023-01-13T11:30:54.189Z,6.80
2023-01-13T11:34:23.657Z,5.07
2023-01-13T11:37:38.028Z,4.53
2023-01-13T11:40:46.895Z,6.70
2023-01-13T11:43:59.133Z,5.00
2023-01-13T11:47:01.271Z,5.47
2023-01-13T11:50:04.061Z,8.02
2023-01-13T11:53:29.055Z,6.60
2023-01-13T11:56:52.629Z,8.15
2023-01-13T12:00:18.153Z,5.80
2023-01-13T12:03:44.487Z,6.45
2023-01-13T12:06:49.339Z,7.72
2023-01-13T12:09:50.665Z,7.07
2023-01-13T12:13:20.727Z,9.38
2023-01-13T12:16:31.727Z,9.77
2023-01-13T12:19:33.292Z,7.28
2023-01-13T12:22:36.989Z,11.93
2023-01-13T12:25:46.387Z,6.07
2023-01-13T12:29:00.636Z,7.97
2023-01-13T12:32:05.049Z,9.43
2023-01-13T12:35:25.857Z,8.57
2023-01-13T12:38:34.481Z,10.27
2023-01-13T12:42:10.425Z,13.73
2023-01-13T12:45:11.795Z,9.57
2023-01-13T12:48:52.874Z,11.17
2023-01-13T12:51:54.552Z,5.30
2023-01-13T12:54:55.907Z,7.72
2023-01-13T12:58:06.068Z,9.17
2023-01-13T13:01:13.365Z,11.63
2023-01-13T13:04:20.520Z,9.63
2023-01-13T13:07:30.730Z,6.78
2023-01-13T13:10:37.458Z,7.10
2023-01-13T13:13:47.303Z,8.73
2023-01-13T13:16:51.738Z,7.00
2023-01-13T13:19:53.652Z,13.10
2023-01-13T13:22:55.095Z,11.32
2023-01-13T13:26:33.739Z,9.17
2023-01-13T13:29:47.783Z,9.38
2023-01-13T13:33:39.235Z,9.63
2023-01-13T13:37:03.621Z,8.30
2023-01-13T13:40:28.960Z,13.15
2023-01-13T13:43:59.330Z,11.60
2023-01-13T13:47:03.551Z,12.88
2023-01-13T13:50:14.350Z,11.90
2023-01-13T13:53:19.564Z,6.93
2023-01-13T13:56:28.077Z,15.52
2023-01-13T13:59:30.798Z,8.40
2023-01-13T14:02:36.917Z,9.07
2023-01-13T14:05:38.422Z,10.02
2023-01-13T14:08:46.596Z,6.33
2023-01-13T14:12:15.620Z,8.23
2023-01-13T14:15:33.461Z,8.48
2023-01-13T14:18:48.092Z,10.55
2023-01-13T14:21:49.540Z,8.63
2023-01-13T14:24:55.699Z,10.93
2023-01-13T14:28:00.140Z,9.52
2023-01-13T14:31:02.220Z,6.93
2023-01-13T14:34:28.785Z,12.18
2023-01-13T14:37:41.603Z,20.50
2023-01-13T14:40:45.758Z,10.45
2023-01-13T14:43:48.950Z,8.70
2023-01-13T14:46:53.183Z,8.85
2023-01-13T14:50:02.146Z,19.38
2023-01-13T14:53:05.086Z,12.35
2023-01-13T14:56:39.994Z,10.90
2023-01-13T14:59:48.598Z,9.65
2023-01-13T15:02:53.692Z,8.98
2023-01-13T15:05:57.744Z,10.85
2023-01-13T15:08:59.164Z,11.90
2023-01-13T15:12:15.680Z,11.13
2023-01-13T15:15:39.152Z,8.95
2023-01-13T15:18:41.285Z,10.88
2023-01-13T15:21:42.708Z,14.13
2023-01-13T15:24:44.218Z,9.37
2023-01-13T15:27:50.540Z,15.07
2023-01-13T15:30:55.537Z,12.32
2023-01-13T15:33:58.663Z,12.80
2023-01-13T15:37:00.086Z,10.30
2023-01-13T15:40:01.579Z,12.53
2023-01-13T15:43:21.797Z,11.07
2023-01-13T15:46:38.487Z,9.98
2023-01-13T15:49:46.163Z,13.95
2023-01-13T15:52:47.590Z,11.40
2023-01-13T15:55:55.293Z,14.00
2023-01-13T15:58:57.164Z,9.35
2023-01-13T16:01:58.551Z,12.90
2023-01-13T16:05:00.045Z,12.27
2023-01-13T16:08:01.518Z,12.50
2023-01-13T16:11:03.402Z,14.17
2023-01-13T16:14:04.827Z,12.30
2023-01-13T16:17:21.857Z,14.83
2023-01-13T16:20:23.683Z,12.15
2023-01-13T16:23:25.137Z,12.23
2023-01-13T16:26:32.584Z,11.73
2023-01-13T16:29:34.012Z,5.40
2023-01-13T16:32:35.391Z,3.27
2023-01-13T16:35:36.829Z,6.60
2023-01-13T16:38:58.190Z,3.97
2023-01-13T16:41:59.569Z,7.32
2023-01-13T16:45:08.396Z,3.92
2023-01-13T16:48:19.473Z,3.78
2023-01-13T16:51:22.373Z,4.45
2023-01-13T16:54:23.757Z,6.32
2023-01-13T16:57:25.159Z,4.05
2023-01-13T17:00:26.836Z,6.97
2023-01-13T17:03:29.822Z,7.40
2023-01-13T17:06:39.319Z,9.30
2023-01-13T17:09:40.781Z,9.00
2023-01-13T17:12:42.214Z,7.50
2023-01-13T17:15:45.051Z,8.77
2023-01-13T17:18:48.186Z,7.78
2023-01-13T17:21:51.055Z,10.00
2023-01-13T17:24:52.511Z,8.82
2023-01-13T17:27:53.928Z,8.47
2023-01-13T17:30:55.495Z,5.67
2023-01-13T17:33:57.095Z,6.73
2023-01-13T17:36:58.589Z,5.50
2023-01-13T17:40:00.743Z,7.82
2023-01-13T17:43:02.216Z,6.78
2023-01-13T17:46:08.696Z,8.93
2023-01-13T17:49:15.323Z,9.10
2023-01-13T17:52:16.775Z,9.25
2023-01-13T17:55:18.212Z,10.77
2023-01-13T17:58:21.446Z,14.23
2023-01-13T18:01:22.950Z,14.05
2023-01-13T18:04:28.893Z,16.33
2023-01-13T18:07:30.354Z,11.75
2023-01-13T18:10:33.010Z,10.27
2023-01-13T18:13:35.188Z,11.50
2023-01-13T18:16:39.793Z,10.77
2023-01-13T18:19:59.994Z,12.10
2023-01-13T18:23:20.267Z,15.80
2023-01-13T18:26:40.012Z,9.55
2023-01-13T18:29:42.459Z,9.13
2023-01-13T18:32:43.906Z,11.90
2023-01-13T18:35:45.298Z,9.47
2023-01-13T18:38:48.360Z,9.07
2023-01-13T18:42:08.271Z,11.63
2023-01-13T18:45:10.689Z,9.43
2023-01-13T18:48:12.231Z,10.20
2023-01-13T18:51:13.646Z,9.93
2023-01-13T18:54:15.185Z,10.50
2023-01-13T18:57:16.991Z,11.73
2023-01-13T19:00:20.377Z,14.40
2023-01-13T19:03:29.929Z,25.40
2023-01-13T19:06:33.787Z,16.00
2023-01-13T19:09:35.297Z,17.08
2023-01-13T19:12:36.825Z,13.43
2023-01-13T19:15:38.283Z,14.73
2023-01-13T19:18:41.032Z,8.82
2023-01-13T19:21:42.440Z,9.18
2023-01-13T19:24:43.832Z,18.63
2023-01-13T19:27:45.345Z,14.32
2023-01-13T19:30:46.862Z,15.03
2023-01-13T19:33:48.316Z,10.68
2023-01-13T19:36:51.802Z,13.07
2023-01-13T19:39:53.256Z,13.38
2023-01-13T19:43:13.202Z,14.07
2023-01-13T19:46:14.759Z,9.38
2023-01-13T19:49:16.261Z,23.27
2023-01-13T19:52:17.704Z,42.30
2023-01-13T19:55:19.738Z,14.63
2023-01-13T19:58:23.978Z,17.23
2023-01-13T20:01:31.643Z,13.65
2023-01-13T20:04:39.028Z,12.32
2023-01-13T20:07:40.416Z,10.25
2023-01-13T20:10:45.033Z,10.53
2023-01-13T20:13:46.499Z,9.65
2023-01-13T20:16:47.976Z,10.67
2023-01-13T20:19:49.409Z,9.97
2023-01-13T20:22:51.046Z,12.87
2023-01-13T20:25:52.517Z,12.65
2023-01-13T20:28:54.014Z,14.23
2023-01-13T20:31:55.736Z,10.60
2023-01-13T20:34:57.151Z,12.32
2023-01-13T20:37:58.562Z,11.10
2023-01-13T20:41:01.566Z,8.70
2023-01-13T20:44:02.961Z,9.27
2023-01-13T20:47:05.032Z,9.75
2023-01-13T20:50:07.124Z,10.13
2023-01-13T20:53:08.841Z,9.90
2023-01-13T20:56:10.236Z,9.10
2023-01-13T20:59:11.636Z,13.00
2023-01-13T21:02:15.127Z,11.48
2023-01-13T21:05:16.649Z,8.52
2023-01-13T21:08:18.093Z,11.13
2023-01-13T21:11:39.817Z,9.87
2023-01-13T21:14:59.708Z,9.60
2023-01-13T21:18:19.548Z,13.02
2023-01-13T21:21:21.049Z,10.40
2023-01-13T21:24:23.606Z,11.80
2023-01-13T21:27:25.667Z,11.57
2023-01-13T21:30:27.095Z,11.18
2023-01-13T21:33:29.811Z,11.38
2023-01-13T21:36:31.473Z,13.02
2023-01-13T21:39:32.889Z,9.77
2023-01-13T21:42:53.024Z,14.05
2023-01-13T21:46:12.833Z,9.73
2023-01-13T21:49:14.356Z,10.43
2023-01-13T21:52:16.303Z,16.83
2023-01-13T21:55:29.194Z,13.75
2023-01-13T21:58:30.715Z,14.43
2023-01-13T22:01:32.245Z,16.47
2023-01-13T22:04:33.799Z,11.73
2023-01-13T22:07:36.229Z,11.33
2023-01-13T22:14:09.606Z,9.77
2023-01-13T22:17:14.292Z,12.45
2023-01-13T22:20:16.780Z,10.98
2023-01-13T22:23:20.072Z,9.45
2023-01-13T22:26:21.480Z,14.00
2023-01-13T22:29:22.974Z,19.73
2023-01-13T22:32:24.532Z,16.67
2023-01-13T22:35:25.937Z,10.43
2023-01-13T22:38:27.366Z,9.90
2023-01-13T22:41:28.899Z,10.20
2023-01-13T22:44:30.413Z,9.53
2023-01-13T22:47:33.007Z,11.20
2023-01-13T22:50:34.421Z,12.15
2023-01-13T22:53:36.481Z,11.63
2023-01-13T22:56:38.282Z,12.48
2023-01-13T22:59:39.697Z,14.13
2023-01-13T23:02:41.213Z,17.92
2023-01-13T23:05:42.890Z,11.40
2023-01-13T23:08:45.117Z,13.27
2023-01-13T23:11:47.844Z,10.63
2023-01-13T23:14:49.358Z,11.20
2023-01-13T23:17:51.465Z,8.77
2023-01-13T23:20:52.850Z,13.00
2023-01-13T23:23:54.890Z,12.65
2023-01-13T23:26:56.317Z,13.40
2023-01-13T23:29:57.729Z,7.85
2023-01-13T23:32:59.217Z,11.75
2023-01-13T23:36:03.203Z,12.20
2023-01-13T23:39:04.606Z,14.43
2023-01-13T23:42:06.106Z,12.13
2023-01-13T23:45:08.324Z,14.50
2023-01-13T23:48:09.846Z,13.32
2023-01-13T23:51:13.020Z,11.73
2023-01-13T23:54:14.434Z,10.13
2023-01-13T23:57:15.811Z,13.60
